Terminal Aerodrome Forecast
Issued by NWS Amarillo, TX

Home | Current Version | Previous Version | Text Only | Print | Product List | Glossary On
Versions: 1 2 3 4 5 6 7 8 9 10 11 12 13 14 15 16 17 18 19 20
000
FTUS44 KAMA 282000 AAA
TAFGUY
TAF AMD
KGUY 282056Z 2821/2918 18018G28KT P6SM VCTS SCT030CB SCT150
      TEMPO 2821/2823 3SM TSRA BR BKN015CB
     FM282300 17016G22KT 5SM TSRA BR OVC040CB
     FM290300 18011KT P6SM SCT080 BKN200
     FM290800 34013KT P6SM SCT200
     FM291300 36015G25KT P6SM SCT100 SCT200=

USA.gov is the U.S. government's official web portal to all federal, state and local government web resources and services.